createdAt,value
2023-04-16T00:01:11.112Z,101777.00
2023-04-16T00:11:32.796Z,101783.00
2023-04-16T00:21:55.522Z,101783.00
2023-04-16T00:32:17.239Z,101788.00
2023-04-16T00:42:40.478Z,101792.00
2023-04-16T00:53:04.196Z,101791.00
2023-04-16T01:03:36.543Z,101797.00
2023-04-16T01:14:03.156Z,101797.00
2023-04-16T01:24:26.304Z,101803.00
2023-04-16T01:34:47.736Z,101808.00
2023-04-16T01:45:14.119Z,101817.00
2023-04-16T01:55:36.165Z,101819.00
2023-04-16T02:05:59.234Z,101819.00
2023-04-16T02:16:24.123Z,101816.00
2023-04-16T02:26:59.023Z,101832.00
2023-04-16T02:37:24.038Z,101841.00
2023-04-16T02:47:47.468Z,101837.00
2023-04-16T02:58:10.646Z,101841.00
2023-04-16T03:08:34.156Z,101837.00
2023-04-16T03:18:58.182Z,101852.00
2023-04-16T03:29:21.393Z,101864.00
2023-04-16T03:39:43.517Z,101870.00
2023-04-16T03:50:08.602Z,101875.00
2023-04-16T04:00:32.744Z,101892.00
2023-04-16T04:11:09.567Z,101908.00
2023-04-16T04:21:34.047Z,101928.00
2023-04-16T04:32:02.042Z,101924.00
2023-04-16T04:42:23.814Z,101928.00
2023-04-16T04:52:52.531Z,101936.00
2023-04-16T05:03:14.527Z,101939.00
2023-04-16T05:13:40.259Z,101949.00
2023-04-16T05:24:02.009Z,101973.00
2023-04-16T05:34:25.028Z,101980.00
2023-04-16T05:44:46.536Z,101984.00
2023-04-16T05:55:10.666Z,101998.00
2023-04-16T06:05:36.889Z,101994.00
2023-04-16T06:16:00.254Z,102008.00
2023-04-16T06:26:23.199Z,102017.00
2023-04-16T06:36:51.115Z,102027.00
2023-04-16T06:47:13.056Z,102028.00
2023-04-16T06:57:37.374Z,102021.00
2023-04-16T07:08:00.337Z,102028.00
2023-04-16T07:18:23.912Z,102046.00
2023-04-16T07:28:45.227Z,102052.00
2023-04-16T07:39:13.812Z,102062.00
2023-04-16T07:49:44.207Z,102070.00
2023-04-16T08:00:08.899Z,102072.00
2023-04-16T08:10:37.559Z,102077.00
2023-04-16T08:21:12.834Z,102092.00
2023-04-16T08:31:38.640Z,102098.00
2023-04-16T08:42:11.928Z,102117.00
2023-04-16T08:52:49.268Z,102130.00
2023-04-16T09:03:13.832Z,102131.00
2023-04-16T09:13:36.202Z,102143.00
2023-04-16T09:24:00.941Z,102157.00
2023-04-16T09:34:22.477Z,102156.00
2023-04-16T09:44:47.966Z,102174.00
2023-04-16T09:55:11.960Z,102161.00
2023-04-16T10:05:38.025Z,102173.00
2023-04-16T10:16:00.049Z,102152.00
2023-04-16T10:26:23.536Z,102170.00
2023-04-16T10:36:51.801Z,102171.00
2023-04-16T10:47:18.877Z,102186.00
2023-04-16T10:57:40.874Z,102191.00
2023-04-16T11:08:16.033Z,102196.00
2023-04-16T11:18:38.296Z,102194.00
2023-04-16T11:29:15.727Z,102196.00
2023-04-16T11:39:49.267Z,102208.00
2023-04-16T11:50:23.476Z,102210.00
2023-04-16T12:00:46.919Z,102215.00
2023-04-16T12:11:10.017Z,102211.00
2023-04-16T12:21:42.572Z,102213.00
2023-04-16T12:32:07.924Z,102223.00
2023-04-16T12:42:35.594Z,102241.00
2023-04-16T12:52:59.114Z,102240.00
2023-04-16T13:03:24.406Z,102248.00
2023-04-16T13:13:50.600Z,102263.00
2023-04-16T13:24:12.151Z,102279.00
2023-04-16T13:34:35.855Z,102280.00
2023-04-16T13:44:58.270Z,102280.00
2023-04-16T13:55:21.742Z,102275.00
2023-04-16T14:05:47.033Z,102268.00
2023-04-16T14:16:10.779Z,102274.00
2023-04-16T14:26:32.841Z,102279.00
2023-04-16T14:36:56.092Z,102268.00
2023-04-16T14:47:18.363Z,102270.00
2023-04-16T14:57:42.009Z,102268.00
2023-04-16T15:08:03.876Z,102296.00
2023-04-16T15:18:27.185Z,102294.00
2023-04-16T15:28:50.652Z,102312.00
2023-04-16T15:39:14.057Z,102311.00
2023-04-16T15:49:36.354Z,102321.00
2023-04-16T16:00:07.077Z,102324.00
2023-04-16T16:10:29.290Z,102332.00
2023-04-16T16:20:58.153Z,102340.00
2023-04-16T16:31:20.207Z,102345.00
2023-04-16T16:41:43.409Z,102346.00
2023-04-16T16:52:07.368Z,102357.00
2023-04-16T17:02:34.789Z,102360.00
2023-04-16T17:12:56.513Z,102378.00
2023-04-16T17:23:26.639Z,102376.00
2023-04-16T17:33:48.345Z,102401.00
2023-04-16T17:44:12.077Z,102412.00
2023-04-16T17:54:34.730Z,102427.00
2023-04-16T18:05:00.165Z,102436.00
2023-04-16T18:15:23.217Z,102454.00
2023-04-16T18:25:48.778Z,102465.00
2023-04-16T18:36:11.751Z,102471.00
2023-04-16T18:46:34.958Z,102495.00
2023-04-16T18:56:57.069Z,102505.00
2023-04-16T19:07:21.496Z,102498.00
2023-04-16T19:17:42.986Z,102509.00
2023-04-16T19:28:06.879Z,102507.00
2023-04-16T19:38:28.631Z,102507.00
2023-04-16T19:48:51.685Z,102521.00
2023-04-16T19:59:13.147Z,102522.00
2023-04-16T20:09:36.324Z,102529.00
2023-04-16T20:20:00.882Z,102536.00
2023-04-16T20:30:28.783Z,102528.00
2023-04-16T20:41:06.268Z,102542.00
2023-04-16T20:51:29.447Z,102557.00
2023-04-16T21:01:52.037Z,102557.00
2023-04-16T21:12:14.990Z,102565.00
2023-04-16T21:22:36.804Z,102575.00
2023-04-16T21:32:59.829Z,102562.00
2023-04-16T21:43:21.577Z,102561.00
2023-04-16T21:53:44.384Z,102568.00
2023-04-16T22:04:07.464Z,102566.00
2023-04-16T22:14:31.839Z,102571.00
2023-04-16T22:24:53.732Z,102575.00
2023-04-16T22:35:16.807Z,102588.00
2023-04-16T22:45:38.133Z,102594.00
2023-04-16T22:56:01.328Z,102582.00
2023-04-16T23:06:23.904Z,102586.00
2023-04-16T23:16:46.660Z,102586.00
2023-04-16T23:27:08.024Z,102591.00
2023-04-16T23:37:31.697Z,102589.00
2023-04-16T23:47:53.283Z,102578.00
2023-04-16T23:58:16.158Z,102576.00
